createdAt,value
2023-04-06T00:00:33.898Z,2.41
2023-04-06T00:02:35.763Z,2.37
2023-04-06T00:04:37.661Z,2.36
2023-04-06T00:06:39.232Z,2.32
2023-04-06T00:08:42.569Z,2.30
2023-04-06T00:10:46.508Z,2.29
2023-04-06T00:12:48.135Z,2.26
2023-04-06T00:14:50.032Z,2.24
2023-04-06T00:16:54.340Z,2.23
2023-04-06T00:18:56.031Z,2.22
2023-04-06T00:20:57.689Z,2.19
2023-04-06T00:22:59.300Z,2.16
2023-04-06T00:25:02.628Z,2.16
2023-04-06T00:27:04.678Z,2.15
2023-04-06T00:29:06.432Z,2.14
2023-04-06T00:31:08.593Z,2.15
2023-04-06T00:33:10.356Z,2.15
2023-04-06T00:35:12.216Z,2.16
2023-04-06T00:37:14.043Z,2.17
2023-04-06T00:39:16.776Z,2.19
2023-04-06T00:41:21.476Z,2.20
2023-04-06T00:43:23.305Z,2.22
2023-04-06T00:45:25.076Z,2.25
2023-04-06T00:47:27.118Z,2.26
2023-04-06T00:49:28.946Z,2.28
2023-04-06T00:51:30.814Z,2.30
2023-04-06T00:53:32.461Z,2.30
2023-04-06T00:55:34.339Z,2.33
2023-04-06T00:57:37.526Z,2.35
2023-04-06T00:59:39.570Z,2.37
2023-04-06T01:01:41.526Z,2.37
2023-04-06T01:03:43.884Z,2.38
2023-04-06T01:05:45.539Z,2.41
2023-04-06T01:07:47.236Z,2.41
2023-04-06T01:09:49.069Z,2.43
2023-04-06T01:11:50.710Z,2.43
2023-04-06T01:13:54.295Z,2.46
2023-04-06T01:15:56.618Z,2.45
2023-04-06T01:17:58.765Z,2.47
2023-04-06T01:20:00.428Z,2.47
2023-04-06T01:22:02.023Z,2.49
2023-04-06T01:24:06.335Z,2.49
2023-04-06T01:26:08.235Z,2.51
2023-04-06T01:28:09.881Z,2.53
2023-04-06T01:30:12.479Z,2.53
2023-04-06T01:32:14.374Z,2.56
2023-04-06T01:34:16.451Z,2.56
2023-04-06T01:36:18.006Z,2.56
2023-04-06T01:38:20.051Z,2.57
2023-04-06T01:40:23.619Z,2.58
2023-04-06T01:42:25.205Z,2.59
2023-04-06T01:44:27.257Z,2.58
2023-04-06T01:46:29.140Z,2.58
2023-04-06T01:48:31.376Z,2.58
2023-04-06T01:50:33.197Z,2.57
2023-04-06T01:52:36.489Z,2.56
2023-04-06T01:54:38.063Z,2.56
2023-04-06T01:56:41.516Z,2.56
2023-04-06T01:58:43.554Z,2.56
2023-04-06T02:00:45.137Z,2.58
2023-04-06T02:02:46.734Z,2.58
2023-04-06T02:04:50.113Z,2.58
2023-04-06T02:06:51.672Z,2.58
2023-04-06T02:08:53.207Z,2.56
2023-04-06T02:10:54.759Z,2.55
2023-04-06T02:12:58.173Z,2.56
2023-04-06T02:15:00.015Z,2.56
2023-04-06T02:17:01.875Z,2.55
2023-04-06T02:19:03.452Z,2.53
2023-04-06T02:21:05.016Z,2.52
2023-04-06T02:23:06.613Z,2.50
2023-04-06T02:25:08.970Z,2.48
2023-04-06T02:27:12.543Z,2.44
2023-04-06T02:29:15.454Z,2.41
2023-04-06T02:31:17.113Z,2.38
2023-04-06T02:33:18.790Z,2.37
2023-04-06T02:35:23.557Z,2.35
2023-04-06T02:37:25.389Z,2.34
2023-04-06T02:39:27.247Z,2.34
2023-04-06T02:41:29.561Z,2.32
2023-04-06T02:43:31.640Z,2.32
2023-04-06T02:45:35.043Z,2.31
2023-04-06T02:47:36.767Z,2.28
2023-04-06T02:49:38.863Z,2.27
2023-04-06T02:51:40.444Z,2.24
2023-04-06T02:53:42.037Z,2.22
2023-04-06T02:55:44.171Z,2.20
2023-04-06T02:57:45.855Z,2.18
2023-04-06T02:59:47.698Z,2.16
2023-04-06T03:01:50.778Z,2.13
2023-04-06T03:03:52.633Z,2.11
2023-04-06T03:05:54.490Z,2.08
2023-04-06T03:07:56.354Z,2.06
2023-04-06T03:09:58.114Z,2.03
2023-04-06T03:11:59.633Z,2.01
2023-04-06T03:14:01.483Z,2.00
2023-04-06T03:16:03.354Z,1.98
2023-04-06T03:18:06.753Z,1.98
2023-04-06T03:20:09.403Z,1.96
2023-04-06T03:22:11.519Z,1.96
2023-04-06T03:24:13.359Z,1.93
2023-04-06T03:26:15.405Z,1.92
2023-04-06T03:28:17.271Z,1.90
2023-04-06T03:30:19.122Z,1.89
2023-04-06T03:32:21.214Z,1.88
2023-04-06T03:34:24.376Z,1.87
2023-04-06T03:36:26.187Z,1.86
2023-04-06T03:38:27.876Z,1.88
2023-04-06T03:40:29.681Z,1.90
2023-04-06T03:42:34.154Z,1.91
2023-04-06T03:44:36.102Z,1.92
2023-04-06T03:46:38.395Z,1.93
2023-04-06T03:48:39.973Z,1.93
2023-04-06T03:50:43.088Z,1.93
2023-04-06T03:52:45.005Z,1.94
2023-04-06T03:54:46.613Z,1.94
2023-04-06T03:56:48.745Z,1.96
2023-04-06T03:58:50.330Z,1.98
2023-04-06T04:00:52.485Z,1.98
2023-04-06T04:02:57.253Z,2.00
2023-04-06T04:04:58.987Z,2.02
2023-04-06T04:07:02.320Z,2.03
2023-04-06T04:09:03.917Z,2.03
2023-04-06T04:11:05.561Z,2.02
2023-04-06T04:13:09.994Z,2.02
2023-04-06T04:15:11.659Z,2.03
2023-04-06T04:17:13.634Z,2.03
2023-04-06T04:19:15.258Z,2.03
2023-04-06T04:21:17.052Z,2.03
2023-04-06T04:23:20.226Z,2.04
2023-04-06T04:25:21.824Z,2.04
2023-04-06T04:27:23.725Z,2.04
2023-04-06T04:29:25.527Z,2.03
2023-04-06T04:31:27.220Z,2.05
2023-04-06T04:33:28.852Z,2.04
2023-04-06T04:35:31.424Z,2.04
2023-04-06T04:37:33.232Z,2.05
2023-04-06T04:39:36.775Z,2.05
2023-04-06T04:41:38.681Z,2.06
2023-04-06T04:43:40.215Z,2.06
2023-04-06T04:45:41.848Z,2.07
2023-04-06T04:47:43.842Z,2.09
2023-04-06T04:49:45.945Z,2.08
2023-04-06T04:51:48.339Z,2.10
2023-04-06T04:53:50.178Z,2.11
2023-04-06T04:55:53.257Z,2.13
2023-04-06T04:57:54.808Z,2.14
2023-04-06T04:59:58.043Z,2.15
2023-04-06T05:02:00.038Z,2.16
2023-04-06T05:04:02.226Z,2.17
2023-04-06T05:06:04.512Z,2.18
2023-04-06T05:08:06.818Z,2.19
2023-04-06T05:10:09.301Z,2.20
2023-04-06T05:12:12.944Z,2.21
2023-04-06T05:14:14.706Z,2.21
2023-04-06T05:16:17.000Z,2.22
2023-04-06T05:18:20.036Z,2.23
2023-04-06T05:20:22.013Z,2.24
2023-04-06T05:22:23.636Z,2.26
2023-04-06T05:24:26.720Z,2.27
2023-04-06T05:26:28.357Z,2.31
2023-04-06T05:28:31.514Z,2.35
2023-04-06T05:30:33.104Z,2.38
2023-04-06T05:32:35.231Z,2.42
2023-04-06T05:34:37.882Z,2.45
2023-04-06T05:36:40.082Z,2.51
2023-04-06T05:38:42.125Z,2.55
2023-04-06T05:40:49.178Z,2.59
2023-04-06T05:42:53.110Z,2.63
2023-04-06T05:44:56.447Z,2.70
2023-04-06T05:46:58.333Z,2.75
2023-04-06T05:48:59.873Z,2.79
2023-04-06T05:51:01.647Z,2.85
2023-04-06T05:53:03.488Z,2.91
2023-04-06T05:55:05.925Z,2.97
2023-04-06T05:57:07.735Z,3.03
2023-04-06T05:59:10.322Z,3.09
2023-04-06T06:01:13.965Z,3.17
2023-04-06T06:03:15.846Z,3.24
2023-04-06T06:05:18.700Z,3.31
2023-04-06T06:07:20.494Z,3.39
2023-04-06T06:09:22.286Z,3.46
2023-04-06T06:11:23.890Z,3.52
2023-04-06T06:13:25.651Z,3.59
2023-04-06T06:15:27.504Z,3.67
2023-04-06T06:17:31.203Z,3.74
2023-04-06T06:19:33.133Z,3.83
2023-04-06T06:21:34.693Z,3.91
2023-04-06T06:23:36.338Z,3.98
2023-04-06T06:25:38.133Z,4.07
2023-04-06T06:27:39.921Z,4.13
2023-04-06T06:29:41.578Z,4.22
2023-04-06T06:31:43.260Z,4.29
2023-04-06T06:33:46.417Z,4.37
2023-04-06T06:35:48.159Z,4.45
2023-04-06T06:37:49.926Z,4.54
2023-04-06T06:39:51.507Z,4.61
2023-04-06T06:41:53.185Z,4.71
2023-04-06T06:43:54.774Z,4.79
2023-04-06T06:45:56.543Z,4.89
2023-04-06T06:47:58.523Z,4.98
2023-04-06T06:50:01.682Z,5.09
2023-04-06T06:52:03.724Z,5.17
2023-04-06T06:54:05.702Z,5.27
2023-04-06T06:56:07.773Z,5.36
2023-04-06T06:58:09.316Z,5.46
2023-04-06T07:00:13.510Z,5.55
2023-04-06T07:02:15.491Z,5.65
2023-04-06T07:04:17.368Z,5.75
2023-04-06T07:06:21.063Z,5.87
2023-04-06T07:08:26.179Z,5.97
2023-04-06T07:10:28.369Z,6.06
2023-04-06T07:12:30.444Z,6.17
2023-04-06T07:14:32.327Z,6.29
2023-04-06T07:16:34.352Z,6.41
2023-04-06T07:18:36.423Z,6.54
2023-04-06T07:20:38.097Z,6.66
2023-04-06T07:22:43.248Z,6.75
2023-04-06T07:24:46.491Z,6.88
2023-04-06T07:26:48.543Z,6.99
2023-04-06T07:28:50.082Z,7.11
2023-04-06T07:30:51.892Z,7.24
2023-04-06T07:32:53.695Z,7.36
2023-04-06T07:34:55.529Z,7.47
2023-04-06T07:36:57.128Z,7.60
2023-04-06T07:39:00.463Z,7.69
2023-04-06T07:41:02.022Z,7.80
2023-04-06T07:43:03.697Z,7.92
2023-04-06T07:45:07.000Z,8.03
2023-04-06T07:47:08.641Z,8.15
2023-04-06T07:49:10.264Z,8.26
2023-04-06T07:51:12.050Z,8.39
2023-04-06T07:53:13.638Z,8.51
2023-04-06T07:55:16.925Z,8.65
2023-04-06T07:57:19.307Z,8.77
2023-04-06T07:59:20.901Z,8.95
2023-04-06T08:01:22.808Z,9.09
2023-04-06T08:03:24.639Z,9.24
2023-04-06T08:05:26.822Z,9.39
2023-04-06T08:07:28.698Z,9.53
2023-04-06T08:09:30.227Z,9.67
2023-04-06T08:11:33.145Z,9.79
2023-04-06T08:13:34.978Z,9.93
2023-04-06T08:15:36.928Z,10.05
2023-04-06T08:17:38.619Z,10.21
2023-04-06T08:19:40.503Z,10.35
2023-04-06T08:21:42.597Z,10.50
2023-04-06T08:23:44.449Z,10.65
2023-04-06T08:25:46.036Z,10.79
2023-04-06T08:27:49.388Z,10.93
2023-04-06T08:29:51.688Z,11.04
2023-04-06T08:31:53.516Z,11.18
2023-04-06T08:33:55.325Z,11.29
2023-04-06T08:35:56.985Z,11.38
2023-04-06T08:37:58.571Z,11.51
2023-04-06T08:40:00.266Z,11.63
2023-04-06T08:42:02.379Z,11.78
2023-04-06T08:44:05.857Z,11.91
2023-04-06T08:46:07.660Z,12.02
2023-04-06T08:48:09.836Z,12.14
2023-04-06T08:50:11.884Z,12.24
2023-04-06T08:52:13.506Z,12.36
2023-04-06T08:54:15.874Z,12.49
2023-04-06T08:56:17.865Z,12.62
2023-04-06T08:58:34.971Z,12.76
2023-04-06T09:00:41.617Z,12.92
2023-04-06T09:02:46.533Z,13.06
2023-04-06T09:04:49.609Z,13.21
2023-04-06T09:06:51.320Z,13.33
2023-04-06T09:08:53.100Z,13.47
2023-04-06T09:10:54.746Z,13.59
2023-04-06T09:13:04.416Z,13.71
2023-04-06T09:15:07.437Z,13.78
2023-04-06T09:17:21.228Z,13.89
2023-04-06T09:19:22.826Z,13.95
2023-04-06T09:21:25.941Z,14.07
2023-04-06T09:23:27.868Z,14.19
2023-04-06T09:25:29.985Z,14.32
2023-04-06T09:27:32.778Z,14.44
2023-04-06T09:29:34.438Z,14.56
2023-04-06T09:31:36.258Z,14.66
2023-04-06T09:33:40.733Z,14.76
2023-04-06T09:35:51.101Z,14.86
2023-04-06T09:37:53.571Z,14.97
2023-04-06T09:40:04.348Z,15.13
2023-04-06T09:42:06.135Z,15.23
2023-04-06T09:44:09.751Z,15.39
2023-04-06T09:46:12.124Z,15.49
2023-04-06T09:48:13.979Z,15.61
2023-04-06T09:50:17.523Z,15.69
2023-04-06T09:52:21.049Z,15.77
2023-04-06T09:54:27.072Z,15.86
2023-04-06T09:56:32.232Z,15.96
2023-04-06T09:58:37.840Z,16.04
2023-04-06T10:00:48.838Z,16.14
2023-04-06T10:02:56.057Z,16.24
2023-04-06T10:05:02.438Z,16.35
2023-04-06T10:07:08.066Z,16.44
2023-04-06T10:09:10.144Z,16.50
2023-04-06T10:11:11.973Z,16.54
2023-04-06T10:13:13.909Z,16.65
2023-04-06T10:15:15.503Z,16.69
2023-04-06T10:17:17.096Z,16.76
2023-04-06T10:19:24.713Z,16.85
2023-04-06T10:21:28.915Z,16.95
2023-04-06T10:23:35.067Z,17.07
2023-04-06T10:25:36.760Z,17.18
2023-04-06T10:27:38.803Z,17.32
2023-04-06T10:29:47.847Z,17.44
2023-04-06T10:31:50.143Z,17.51
2023-04-06T10:33:55.353Z,17.62
2023-04-06T10:35:57.568Z,17.70
2023-04-06T10:38:03.442Z,17.78
2023-04-06T10:40:18.703Z,17.81
2023-04-06T10:42:25.201Z,17.88
2023-04-06T10:44:26.818Z,17.89
2023-04-06T10:46:29.510Z,17.94
2023-04-06T10:49:11.088Z,18.05
2023-04-06T10:51:14.315Z,18.08
2023-04-06T10:53:22.764Z,18.14
2023-04-06T10:55:27.091Z,18.18
2023-04-06T10:57:29.203Z,18.22
2023-04-06T10:59:31.462Z,18.32
2023-04-06T11:01:33.600Z,18.38
2023-04-06T11:03:44.187Z,18.48
2023-04-06T11:05:47.726Z,18.55
2023-04-06T11:07:49.876Z,18.60
2023-04-06T11:10:11.291Z,18.66
2023-04-06T11:12:23.962Z,18.81
2023-04-06T11:14:25.754Z,18.91
2023-04-06T11:16:29.370Z,19.00
2023-04-06T11:18:31.076Z,19.10
2023-04-06T11:20:32.717Z,19.15
2023-04-06T11:22:34.311Z,19.25
2023-04-06T11:24:36.127Z,19.34
2023-04-06T11:26:41.997Z,19.42
2023-04-06T11:28:45.171Z,19.54
2023-04-06T11:30:47.955Z,19.63
2023-04-06T11:32:49.902Z,19.73
2023-04-06T11:34:51.539Z,19.73
2023-04-06T11:36:57.151Z,19.67
2023-04-06T11:38:59.001Z,19.71
2023-04-06T11:41:02.325Z,19.71
2023-04-06T11:43:05.342Z,19.72
2023-04-06T11:45:10.089Z,19.76
2023-04-06T11:47:12.669Z,19.84
2023-04-06T11:49:17.038Z,19.86
2023-04-06T11:51:23.400Z,19.90
2023-04-06T11:53:25.342Z,19.96
2023-04-06T11:55:27.303Z,19.98
2023-04-06T11:57:30.620Z,20.04
2023-04-06T11:59:32.340Z,20.05
2023-04-06T12:01:39.253Z,20.12
2023-04-06T12:03:41.398Z,20.14
2023-04-06T12:05:43.814Z,20.19
2023-04-06T12:07:45.467Z,20.21
2023-04-06T12:09:47.314Z,20.26
2023-04-06T12:11:49.130Z,20.33
2023-04-06T12:13:50.706Z,20.37
2023-04-06T12:15:52.386Z,20.44
2023-04-06T12:17:55.571Z,20.52
2023-04-06T12:20:05.142Z,20.59
2023-04-06T12:22:11.272Z,20.67
2023-04-06T12:24:12.860Z,20.75
2023-04-06T12:26:14.706Z,20.79
2023-04-06T12:28:16.363Z,20.83
2023-04-06T12:30:18.605Z,20.86
2023-04-06T12:32:20.417Z,20.89
2023-04-06T12:34:23.624Z,20.95
2023-04-06T12:36:25.273Z,21.00
2023-04-06T12:38:27.549Z,21.02
2023-04-06T12:40:29.144Z,21.04
2023-04-06T12:42:30.969Z,20.89
2023-04-06T12:44:32.796Z,20.74
2023-04-06T12:46:34.655Z,20.59
2023-04-06T12:48:36.812Z,20.39
2023-04-06T12:50:40.226Z,20.31
2023-04-06T12:52:42.101Z,20.27
2023-04-06T12:54:43.694Z,20.18
2023-04-06T12:56:45.574Z,20.23
2023-04-06T12:58:47.419Z,20.24
2023-04-06T13:00:50.517Z,20.24
2023-04-06T13:02:52.464Z,20.20
2023-04-06T13:04:54.184Z,20.23
2023-04-06T13:06:57.699Z,20.26
2023-04-06T13:08:59.539Z,20.32
2023-04-06T13:11:01.617Z,20.39
2023-04-06T13:13:03.265Z,20.45
2023-04-06T13:15:06.187Z,20.45
2023-04-06T13:17:08.421Z,20.47
2023-04-06T13:19:10.313Z,20.42
2023-04-06T13:21:15.402Z,20.40
2023-04-06T13:23:18.384Z,20.32
2023-04-06T13:25:19.986Z,20.27
2023-04-06T13:27:21.583Z,20.17
2023-04-06T13:29:23.389Z,20.06
2023-04-06T13:31:25.367Z,19.90
2023-04-06T13:33:27.386Z,19.73
2023-04-06T13:35:29.039Z,19.57
2023-04-06T13:37:30.660Z,19.46
2023-04-06T13:39:34.080Z,19.49
2023-04-06T13:41:35.917Z,19.50
2023-04-06T13:43:37.561Z,19.49
2023-04-06T13:45:40.677Z,19.48
2023-04-06T13:47:42.361Z,19.51
2023-04-06T13:49:44.130Z,19.56
2023-04-06T13:51:45.731Z,19.60
2023-04-06T13:53:47.425Z,19.64
2023-04-06T13:55:55.278Z,19.66
2023-04-06T13:57:57.107Z,19.60
2023-04-06T13:59:59.095Z,19.53
2023-04-06T14:02:01.291Z,19.46
2023-04-06T14:04:03.464Z,19.37
2023-04-06T14:08:17.373Z,19.12
2023-04-06T14:10:18.971Z,18.99
2023-04-06T14:12:22.095Z,18.82
2023-04-06T14:14:24.863Z,18.68
2023-04-06T14:16:26.641Z,18.57
2023-04-06T14:18:28.469Z,18.49
2023-04-06T14:20:33.362Z,18.42
2023-04-06T14:22:35.820Z,18.42
2023-04-06T14:24:37.452Z,18.41
2023-04-06T14:26:40.903Z,18.36
2023-04-06T14:28:44.453Z,18.31
2023-04-06T14:30:46.053Z,18.21
2023-04-06T14:32:47.929Z,18.11
2023-04-06T14:34:49.814Z,17.97
2023-04-06T14:36:51.914Z,17.86
2023-04-06T14:38:53.583Z,17.78
2023-04-06T14:40:55.223Z,17.70
2023-04-06T14:42:57.865Z,17.63
2023-04-06T14:45:01.404Z,17.55
2023-04-06T14:47:04.478Z,17.49
2023-04-06T14:49:06.862Z,17.43
2023-04-06T14:51:08.787Z,17.38
2023-04-06T14:53:10.367Z,17.31
2023-04-06T14:55:12.441Z,17.29
2023-04-06T14:57:14.658Z,17.20
2023-04-06T14:59:16.439Z,17.05
2023-04-06T15:01:20.354Z,16.89
2023-04-06T15:03:22.822Z,16.72
2023-04-06T15:05:24.899Z,16.52
2023-04-06T15:07:26.557Z,16.35
2023-04-06T15:09:28.373Z,16.18
2023-04-06T15:11:30.941Z,16.01
2023-04-06T15:13:32.525Z,15.87
2023-04-06T15:15:34.500Z,15.75
2023-04-06T15:17:37.488Z,15.57
2023-04-06T15:19:39.084Z,15.46
2023-04-06T15:21:41.284Z,15.36
2023-04-06T15:23:42.922Z,15.29
2023-04-06T15:25:44.815Z,15.17
2023-04-06T15:27:46.551Z,15.07
2023-04-06T15:29:48.263Z,14.96
2023-04-06T15:31:49.976Z,14.89
2023-04-06T15:33:53.135Z,14.80
2023-04-06T15:35:55.034Z,14.75
2023-04-06T15:37:57.021Z,14.69
2023-04-06T15:40:00.301Z,14.58
2023-04-06T15:42:03.602Z,14.52
2023-04-06T15:44:05.502Z,14.49
2023-04-06T15:48:09.582Z,14.43
2023-04-06T15:50:14.312Z,14.40
2023-04-06T15:52:16.161Z,14.33
2023-04-06T15:54:18.139Z,14.29
2023-04-06T15:56:19.991Z,14.26
2023-04-06T15:58:22.031Z,14.20
2023-04-06T16:00:23.916Z,14.14
2023-04-06T16:02:26.297Z,14.09
2023-04-06T16:04:28.459Z,14.02
2023-04-06T16:06:31.410Z,13.95
2023-04-06T16:08:33.051Z,13.87
2023-04-06T16:10:34.819Z,13.80
2023-04-06T16:12:36.444Z,13.74
2023-04-06T16:14:38.113Z,13.67
2023-04-06T16:16:40.749Z,13.62
2023-04-06T16:18:42.739Z,13.61
2023-04-06T16:20:44.343Z,13.55
2023-04-06T16:22:47.509Z,13.47
2023-04-06T16:24:49.141Z,13.42
2023-04-06T16:26:50.981Z,13.36
2023-04-06T16:28:52.666Z,13.32
2023-04-06T16:30:54.429Z,13.28
2023-04-06T16:32:56.337Z,13.24
2023-04-06T16:34:57.962Z,13.19
2023-04-06T16:36:59.670Z,13.15
2023-04-06T16:39:03.076Z,13.09
2023-04-06T16:41:04.896Z,13.05
2023-04-06T16:43:06.466Z,12.99
2023-04-06T16:45:08.483Z,12.92
2023-04-06T16:47:10.051Z,12.88
2023-04-06T16:49:11.861Z,12.82
2023-04-06T16:51:13.715Z,12.76
2023-04-06T16:53:15.318Z,12.69
2023-04-06T16:55:18.917Z,12.64
2023-04-06T16:57:20.691Z,12.59
2023-04-06T16:59:22.729Z,12.52
2023-04-06T17:01:28.306Z,12.44
2023-04-06T17:03:30.842Z,12.36
2023-04-06T17:05:32.714Z,12.28
2023-04-06T17:07:34.321Z,12.21
2023-04-06T17:09:36.140Z,12.13
2023-04-06T17:11:46.533Z,12.09
2023-04-06T17:13:50.110Z,12.06
2023-04-06T17:15:51.735Z,12.04
2023-04-06T17:17:53.648Z,12.02
2023-04-06T17:19:55.247Z,11.98
2023-04-06T17:21:56.993Z,11.96
2023-04-06T17:23:58.611Z,11.93
2023-04-06T17:26:04.011Z,11.81
2023-04-06T17:28:08.441Z,11.70
2023-04-06T17:30:11.464Z,11.56
2023-04-06T17:32:13.327Z,11.42
2023-04-06T17:34:14.987Z,11.28
2023-04-06T17:36:16.842Z,11.18
2023-04-06T17:38:18.603Z,11.08
2023-04-06T17:40:20.225Z,10.97
2023-04-06T17:44:24.912Z,10.81
2023-04-06T17:46:26.560Z,10.70
2023-04-06T17:48:28.319Z,10.59
2023-04-06T17:50:29.935Z,10.49
2023-04-06T17:52:32.436Z,10.38
2023-04-06T17:54:34.753Z,10.29
2023-04-06T17:56:36.403Z,10.19
2023-04-06T17:58:38.523Z,10.09
2023-04-06T18:00:41.710Z,9.95
2023-04-06T18:02:43.409Z,9.88
2023-04-06T18:04:45.230Z,9.79
2023-04-06T18:06:47.279Z,9.74
2023-04-06T18:08:49.043Z,9.67
2023-04-06T18:10:50.924Z,9.61
2023-04-06T18:12:52.781Z,9.55
2023-04-06T18:14:54.638Z,9.47
2023-04-06T18:16:57.647Z,9.39
2023-04-06T18:19:00.575Z,9.32
2023-04-06T18:21:03.920Z,9.24
2023-04-06T18:23:05.761Z,9.20
2023-04-06T18:25:08.725Z,9.13
2023-04-06T18:27:11.063Z,9.04
2023-04-06T18:29:12.903Z,8.98
2023-04-06T18:31:14.730Z,8.91
2023-04-06T18:33:17.655Z,8.85
2023-04-06T18:35:19.725Z,8.75
2023-04-06T18:37:21.554Z,8.69
2023-04-06T18:39:23.099Z,8.63
2023-04-06T18:41:24.719Z,8.57
2023-04-06T18:43:26.480Z,8.50
2023-04-06T18:45:28.055Z,8.46
2023-04-06T18:47:30.085Z,8.39
2023-04-06T18:49:33.460Z,8.32
2023-04-06T18:51:35.036Z,8.26
2023-04-06T18:53:38.537Z,8.19
2023-04-06T18:55:41.710Z,8.10
2023-04-06T18:57:43.561Z,8.04
2023-04-06T18:59:45.348Z,7.96
2023-04-06T19:01:47.367Z,7.88
2023-04-06T19:03:49.202Z,7.80
2023-04-06T19:05:52.504Z,7.74
2023-04-06T19:07:54.361Z,7.68
2023-04-06T19:09:56.391Z,7.63
2023-04-06T19:11:58.102Z,7.59
2023-04-06T19:14:00.234Z,7.53
2023-04-06T19:16:02.095Z,7.48
2023-04-06T19:18:04.059Z,7.43
2023-04-06T19:20:07.243Z,7.37
2023-04-06T19:22:10.440Z,7.32
2023-04-06T19:24:12.230Z,7.28
2023-04-06T19:26:14.911Z,7.21
2023-04-06T19:28:16.731Z,7.17
2023-04-06T19:30:18.356Z,7.12
2023-04-06T19:32:20.065Z,7.08
2023-04-06T19:34:21.782Z,7.03
2023-04-06T19:36:23.687Z,6.99
2023-04-06T19:38:28.457Z,6.95
2023-04-06T19:40:30.827Z,6.89
2023-04-06T19:42:32.670Z,6.84
2023-04-06T19:44:34.481Z,6.79
2023-04-06T19:46:36.622Z,6.75
2023-04-06T19:48:38.270Z,6.70
2023-04-06T19:50:40.139Z,6.68
2023-04-06T19:52:41.699Z,6.64
2023-04-06T19:54:45.346Z,6.62
2023-04-06T19:56:46.896Z,6.58
2023-04-06T19:58:48.962Z,6.55
2023-04-06T20:00:50.833Z,6.53
2023-04-06T20:02:53.048Z,6.50
2023-04-06T20:04:55.055Z,6.47
2023-04-06T20:06:57.261Z,6.44
2023-04-06T20:08:59.297Z,6.42
2023-04-06T20:11:04.750Z,6.39
2023-04-06T20:13:06.665Z,6.34
2023-04-06T20:15:09.389Z,6.29
2023-04-06T20:17:11.024Z,6.28
2023-04-06T20:19:12.915Z,6.24
2023-04-06T20:21:17.186Z,6.21
2023-04-06T20:23:19.013Z,6.16
2023-04-06T20:25:20.642Z,6.13
2023-04-06T20:27:23.749Z,6.09
2023-04-06T20:29:25.797Z,6.05
2023-04-06T20:31:27.876Z,6.03
2023-04-06T20:33:29.518Z,6.00
2023-04-06T20:35:31.427Z,5.96
2023-04-06T20:37:34.282Z,5.95
2023-04-06T20:39:36.136Z,5.91
2023-04-06T20:41:37.769Z,5.88
2023-04-06T20:43:40.706Z,5.85
2023-04-06T20:45:42.667Z,5.81
2023-04-06T20:47:44.607Z,5.78
2023-04-06T20:49:46.389Z,5.75
2023-04-06T20:51:48.013Z,5.69
2023-04-06T20:53:49.816Z,5.65
2023-04-06T20:55:51.647Z,5.61
2023-04-06T20:57:53.575Z,5.57
2023-04-06T20:59:56.572Z,5.55
2023-04-06T21:01:58.272Z,5.51
2023-04-06T21:04:14.482Z,5.50
2023-04-06T21:06:16.162Z,5.48
2023-04-06T21:08:17.748Z,5.47
2023-04-06T21:10:19.591Z,5.44
2023-04-06T21:12:21.227Z,5.42
2023-04-06T21:14:23.901Z,5.40
2023-04-06T21:16:27.455Z,5.38
2023-04-06T21:18:30.343Z,5.35
2023-04-06T21:20:32.179Z,5.32
2023-04-06T21:22:34.441Z,5.31
2023-04-06T21:24:36.091Z,5.29
2023-04-06T21:26:37.689Z,5.26
2023-04-06T21:28:39.243Z,5.23
2023-04-06T21:30:41.793Z,5.22
2023-04-06T21:32:45.596Z,5.21
2023-04-06T21:34:47.533Z,5.20
2023-04-06T21:36:50.425Z,5.18
2023-04-06T21:38:52.255Z,5.18
2023-04-06T21:40:54.981Z,5.16
2023-04-06T21:42:56.614Z,5.16
2023-04-06T21:44:59.097Z,5.14
2023-04-06T21:47:01.940Z,5.12
2023-04-06T21:49:05.322Z,5.09
2023-04-06T21:51:06.973Z,5.09
2023-04-06T21:53:09.238Z,5.06
2023-04-06T21:55:11.114Z,5.05
2023-04-06T21:57:12.889Z,5.04
2023-04-06T21:59:14.908Z,5.00
2023-04-06T22:01:16.894Z,4.99
2023-04-06T22:03:18.608Z,4.97
2023-04-06T22:05:21.874Z,4.94
2023-04-06T22:07:23.766Z,4.90
2023-04-06T22:09:25.965Z,4.89
2023-04-06T22:11:27.527Z,4.86
2023-04-06T22:13:29.232Z,4.84
2023-04-06T22:15:31.087Z,4.83
2023-04-06T22:17:33.420Z,4.81
2023-04-06T22:19:35.527Z,4.78
2023-04-06T22:21:38.910Z,4.77
2023-04-06T22:23:40.722Z,4.76
2023-04-06T22:25:42.439Z,4.74
2023-04-06T22:27:44.326Z,4.71
2023-04-06T22:29:45.931Z,4.71
2023-04-06T22:31:47.618Z,4.68
2023-04-06T22:33:49.545Z,4.68
2023-04-06T22:35:51.412Z,4.65
2023-04-06T22:37:54.558Z,4.63
2023-04-06T22:39:57.119Z,4.62
2023-04-06T22:42:05.007Z,4.62
2023-04-06T22:44:06.523Z,4.59
2023-04-06T22:46:08.556Z,4.61
2023-04-06T22:48:10.217Z,4.59
2023-04-06T22:50:12.194Z,4.59
2023-04-06T22:52:13.841Z,4.57
2023-04-06T22:54:16.992Z,4.57
2023-04-06T22:56:18.557Z,4.56
2023-04-06T22:58:20.161Z,4.55
2023-04-06T23:00:22.165Z,4.55
2023-04-06T23:02:23.812Z,4.54
2023-04-06T23:04:26.018Z,4.53
2023-04-06T23:06:28.141Z,4.51
2023-04-06T23:08:29.946Z,4.51
2023-04-06T23:10:33.320Z,4.51
2023-04-06T23:12:35.262Z,4.49
2023-04-06T23:14:37.309Z,4.49
2023-04-06T23:16:39.194Z,4.48
2023-04-06T23:18:42.317Z,4.47
2023-04-06T23:20:43.854Z,4.47
2023-04-06T23:22:46.078Z,4.45
2023-04-06T23:24:47.682Z,4.44
2023-04-06T23:26:50.918Z,4.42
2023-04-06T23:28:52.548Z,4.41
2023-04-06T23:30:54.433Z,4.39
2023-04-06T23:32:56.337Z,4.39
2023-04-06T23:34:57.964Z,4.37
2023-04-06T23:36:59.610Z,4.36
2023-04-06T23:39:01.560Z,4.35
2023-04-06T23:41:03.142Z,4.35
2023-04-06T23:43:06.539Z,4.34
2023-04-06T23:45:09.355Z,4.33
2023-04-06T23:47:11.096Z,4.32
2023-04-06T23:49:12.794Z,4.32
2023-04-06T23:51:14.612Z,4.30
2023-04-06T23:53:16.470Z,4.30
2023-04-06T23:55:18.491Z,4.27
2023-04-06T23:57:20.083Z,4.25
2023-04-06T23:59:23.287Z,4.24
